Time,TemperatureF,DewpointF,PressureIn,WindDirection,WindDirectionDegrees,WindSpeedMPH,WindSpeedGustMPH,Humidity,HourlyPrecipIn,Conditions,Clouds,dailyrainin,SoftwareType,DateUTC
2013-02-25 00:03:00,42.8,0.0,30.14,WNW,286,0.0,3.0,0,0.06,,OVC065,0.01,VWS V13.01,2013-02-25 08:03:00,
2013-02-25 00:09:00,42.9,0.0,30.14,SW,223,0.0,3.0,0,0.06,,OVC065,0.02,VWS V13.01,2013-02-25 08:09:00,
2013-02-25 00:14:00,42.9,0.0,30.13,SW,228,0.0,4.0,0,0.07,,OVC065,0.03,VWS V13.01,2013-02-25 08:14:00,
2013-02-25 00:19:00,43.3,0.0,30.13,SSW,197,0.0,3.0,0,0.07,,OVC065,0.04,VWS V13.01,2013-02-25 08:19:00,
2013-02-25 00:24:00,43.2,0.0,30.13,WSW,239,1.0,4.0,0,0.08,,OVC065,0.05,VWS V13.01,2013-02-25 08:24:00,
2013-02-25 00:29:00,43.3,0.0,30.13,WSW,249,0.0,4.0,0,0.09,,OVC065,0.05,VWS V13.01,2013-02-25 08:29:00,
2013-02-25 00:34:00,43.1,0.0,30.13,SW,216,0.0,3.0,0,0.10,,OVC065,0.07,VWS V13.01,2013-02-25 08:34:00,
2013-02-25 00:39:00,43.0,0.0,30.13,SW,229,0.0,3.0,0,0.10,,OVC065,0.07,VWS V13.01,2013-02-25 08:39:00,
2013-02-25 00:44:00,43.1,0.0,30.13,SW,229,0.0,0.0,0,0.11,,OVC048,0.09,VWS V13.01,2013-02-25 08:44:00,
2013-02-25 00:49:00,43.1,0.0,30.13,SW,229,0.0,1.0,0,0.13,,OVC048,0.10,VWS V13.01,2013-02-25 08:49:00,
2013-02-25 00:54:00,43.1,0.0,30.13,SW,229,0.0,1.0,0,0.14,,OVC048,0.12,VWS V13.01,2013-02-25 08:54:00,
2013-02-25 01:00:00,43.1,0.0,30.12,SW,229,1.0,1.0,0,0.16,,OVC048,0.13,VWS V13.01,2013-02-25 09:00:00,
2013-02-25 01:05:00,43.3,0.0,30.12,SW,225,0.0,3.0,0,0.15,,OVC048,0.15,VWS V13.01,2013-02-25 09:05:00,
2013-02-25 01:10:00,43.3,0.0,30.12,WSW,254,0.0,3.0,0,0.16,,OVC048,0.17,VWS V13.01,2013-02-25 09:10:00,
2013-02-25 01:15:00,43.4,0.0,30.12,WSW,254,0.0,1.0,0,0.18,,OVC048,0.18,VWS V13.01,2013-02-25 09:15:00,
2013-02-25 01:20:00,43.4,0.0,30.12,WSW,254,0.0,1.0,0,0.17,,OVC048,0.20,VWS V13.01,2013-02-25 09:20:00,
2013-02-25 01:25:00,43.4,0.0,30.12,WSW,254,0.0,1.0,0,0.20,,OVC048,0.23,VWS V13.01,2013-02-25 09:25:00,
2013-02-25 01:30:00,43.5,0.0,30.12,South,178,0.0,1.0,0,0.19,,OVC048,0.24,VWS V13.01,2013-02-25 09:30:00,
2013-02-25 01:35:00,43.6,0.0,30.13,NNE,13,0.0,3.0,0,0.20,,OVC048,0.25,VWS V13.01,2013-02-25 09:35:00,
2013-02-25 01:40:00,44.4,0.0,30.14,SW,225,1.0,10.0,0,0.22,,OVC085,0.27,VWS V13.01,2013-02-25 09:40:00,
2013-02-25 01:45:00,45.0,0.0,30.14,SE,134,3.0,5.0,0,0.22,,OVC085,0.30,VWS V13.01,2013-02-25 09:45:00,
2013-02-25 01:50:00,45.2,0.0,30.15,South,173,0.0,5.0,0,0.23,,OVC085,0.31,VWS V13.01,2013-02-25 09:50:00,
2013-02-25 01:56:00,45.2,0.0,30.15,WSW,243,0.0,5.0,0,0.24,,OVC085,0.32,VWS V13.01,2013-02-25 09:56:00,
2013-02-25 02:01:00,45.2,0.0,30.16,WSW,243,0.0,0.0,0,0.19,,OVC085,0.32,VWS V13.01,2013-02-25 10:01:00,
2013-02-25 02:06:00,45.1,0.0,30.16,NNE,30,0.0,4.0,0,0.19,,OVC085,0.32,VWS V13.01,2013-02-25 10:06:00,
2013-02-25 02:11:00,45.1,0.0,30.16,NNE,26,0.0,4.0,0,0.20,,OVC085,0.33,VWS V13.01,2013-02-25 10:11:00,
2013-02-25 02:16:00,45.1,0.0,30.16,NNE,26,0.0,0.0,0,0.15,,OVC085,0.33,VWS V13.01,2013-02-25 10:16:00,
2013-02-25 02:21:00,45.0,0.0,30.17,NE,42,0.0,7.0,0,0.15,,OVC085,0.33,VWS V13.01,2013-02-25 10:21:00,
2013-02-25 02:26:00,45.0,0.0,30.17,SSW,206,0.0,7.0,0,0.15,,OVC085,0.33,VWS V13.01,2013-02-25 10:26:00,
2013-02-25 02:31:00,44.9,0.0,30.17,South,190,2.0,3.0,0,0.10,,OVC085,0.33,VWS V13.01,2013-02-25 10:31:00,
2013-02-25 02:36:00,44.9,0.0,30.18,SW,215,0.0,3.0,0,0.10,,OVC085,0.33,VWS V13.01,2013-02-25 10:36:00,
2013-02-25 02:42:00,44.9,0.0,30.18,SW,215,0.0,3.0,0,0.10,,RA,0.33,VWS V13.01,2013-02-25 10:42:00,
2013-02-25 02:47:00,44.8,0.0,30.18,SW,215,0.0,0.0,0,0.04,,RA,0.34,VWS V13.01,2013-02-25 10:47:00,
2013-02-25 02:52:00,44.6,0.0,30.18,SSW,207,0.0,2.0,0,0.04,,RA,0.34,VWS V13.01,2013-02-25 10:52:00,
2013-02-25 02:57:00,44.5,0.0,30.18,SSW,207,0.0,2.0,0,0.04,,RA,0.34,VWS V13.01,2013-02-25 10:57:00,
2013-02-25 03:02:00,44.2,0.0,30.19,SSW,207,0.0,1.0,0,0.02,,RA,0.34,VWS V13.01,2013-02-25 11:02:00,
2013-02-25 03:07:00,44.0,0.0,30.19,East,94,1.0,2.0,0,0.03,,RA,0.35,VWS V13.01,2013-02-25 11:07:00,
2013-02-25 03:12:00,44.0,0.0,30.20,SE,138,0.0,2.0,0,0.03,,RA,0.35,VWS V13.01,2013-02-25 11:12:00,
2013-02-25 03:17:00,43.8,0.0,30.20,SE,126,1.0,2.0,0,0.02,,RA,0.35,VWS V13.01,2013-02-25 11:17:00,
2013-02-25 03:22:00,43.7,0.0,30.19,SSW,202,0.0,2.0,0,0.02,,RA,0.35,VWS V13.01,2013-02-25 11:22:00,
2013-02-25 03:27:00,43.5,0.0,30.21,SSW,193,0.0,2.0,0,0.02,,RA,0.35,VWS V13.01,2013-02-25 11:27:00,
2013-02-25 03:32:00,43.3,0.0,30.21,North,11,1.0,2.0,0,0.02,,RA,0.35,VWS V13.01,2013-02-25 11:32:00,
2013-02-25 03:38:00,43.3,0.0,30.21,North,11,0.0,2.0,0,0.03,,RA,0.36,VWS V13.01,2013-02-25 11:38:00,
2013-02-25 03:43:00,43.2,0.0,30.21,North,11,0.0,2.0,0,0.03,,OVC031,0.36,VWS V13.01,2013-02-25 11:43:00,
2013-02-25 03:48:00,43.2,0.0,30.22,SSW,209,3.0,4.0,0,0.04,,OVC031,0.37,VWS V13.01,2013-02-25 11:48:00,
2013-02-25 03:53:00,43.0,0.0,30.22,SSW,209,3.0,12.0,0,0.05,,-RA,0.38,VWS V13.01,2013-02-25 11:53:00,
2013-02-25 03:58:00,42.9,0.0,30.22,NNW,333,0.0,12.0,0,0.05,,-RA,0.38,VWS V13.01,2013-02-25 11:58:00,
2013-02-25 04:03:00,42.6,0.0,30.22,NNW,334,0.0,1.0,0,0.04,,-RA,0.38,VWS V13.01,2013-02-25 12:03:00,
2013-02-25 04:08:00,42.4,0.0,30.22,NNW,334,0.0,1.0,0,0.04,,-RA,0.38,VWS V13.01,2013-02-25 12:08:00,
2013-02-25 04:13:00,42.1,0.0,30.22,NNW,334,0.0,1.0,0,0.04,,-RA,0.38,VWS V13.01,2013-02-25 12:13:00,
2013-02-25 04:18:00,41.9,0.0,30.23,NNW,334,0.0,0.0,0,0.03,,-RA,0.38,VWS V13.01,2013-02-25 12:18:00,
2013-02-25 04:23:00,41.6,0.0,30.23,NNW,334,0.0,0.0,0,0.03,,-RA,0.38,VWS V13.01,2013-02-25 12:23:00,
2013-02-25 04:29:00,41.3,0.0,30.23,NNW,334,0.0,0.0,0,0.03,,-RA,0.38,VWS V13.01,2013-02-25 12:29:00,
2013-02-25 04:34:00,41.1,0.0,30.24,NNW,334,0.0,0.0,0,0.03,,-RA,0.38,VWS V13.01,2013-02-25 12:34:00,
2013-02-25 04:39:00,40.9,0.0,30.25,NNW,334,0.0,0.0,0,0.03,,-RA,0.39,VWS V13.01,2013-02-25 12:39:00,
2013-02-25 04:44:00,40.9,0.0,30.24,North,355,1.0,2.0,0,0.04,,-RA,0.39,VWS V13.01,2013-02-25 12:44:00,
2013-02-25 04:49:00,41.0,0.0,30.24,West,263,1.0,2.0,0,0.03,,OVC055,0.39,VWS V13.01,2013-02-25 12:49:00,
2013-02-25 04:54:00,40.9,0.0,30.24,WSW,257,0.0,2.0,0,0.03,,OVC055,0.39,VWS V13.01,2013-02-25 12:54:00,
2013-02-25 04:59:00,40.9,0.0,30.25,West,279,0.0,0.0,0,0.03,,OVC055,0.39,VWS V13.01,2013-02-25 12:59:00,
2013-02-25 05:05:00,40.9,0.0,30.25,NNW,339,0.0,2.0,0,0.01,,OVC055,0.39,VWS V13.01,2013-02-25 13:05:00,
2013-02-25 05:10:00,40.7,0.0,30.25,NNW,339,0.0,2.0,0,0.01,,OVC055,0.39,VWS V13.01,2013-02-25 13:10:00,
2013-02-25 05:15:00,40.6,0.0,30.25,NNW,339,0.0,1.0,0,0.01,,OVC055,0.39,VWS V13.01,2013-02-25 13:15:00,
2013-02-25 05:20:00,40.6,0.0,30.25,NNW,339,1.0,2.0,0,0.02,,OVC055,0.40,VWS V13.01,2013-02-25 13:20:00,
2013-02-25 05:25:00,40.7,0.0,30.25,NNW,339,0.0,2.0,0,0.02,,OVC055,0.40,VWS V13.01,2013-02-25 13:25:00,
2013-02-25 05:31:00,40.6,0.0,30.25,NNW,339,0.0,0.0,0,0.02,,OVC055,0.40,VWS V13.01,2013-02-25 13:31:00,
2013-02-25 05:36:00,40.5,0.0,30.25,NNW,339,0.0,0.0,0,0.02,,OVC055,0.40,VWS V13.01,2013-02-25 13:36:00,
2013-02-25 05:41:00,40.4,0.0,30.25,NNW,339,0.0,0.0,0,0.02,,OVC055,0.40,VWS V13.01,2013-02-25 13:41:00,
2013-02-25 05:46:00,40.4,0.0,30.26,NNW,339,0.0,0.0,0,0.01,,OVC055,0.40,VWS V13.01,2013-02-25 13:46:00,
2013-02-25 05:52:00,40.3,0.0,30.26,NNW,339,1.0,2.0,0,0.03,,SCT080,0.42,VWS V13.01,2013-02-25 13:52:00,
2013-02-25 05:57:00,40.4,0.0,30.26,NNW,339,0.0,2.0,0,0.04,,SCT080,0.43,VWS V13.01,2013-02-25 13:57:00,
2013-02-25 06:02:00,40.6,0.0,30.26,NNW,339,0.0,2.0,0,0.04,,SCT080,0.43,VWS V13.01,2013-02-25 14:02:00,
2013-02-25 06:07:00,40.6,0.0,30.26,NNW,339,0.0,2.0,0,0.04,,SCT080,0.43,VWS V13.01,2013-02-25 14:07:00,
2013-02-25 06:12:00,40.6,0.0,30.27,NNW,339,0.0,2.0,0,0.04,,SCT080,0.43,VWS V13.01,2013-02-25 14:12:00,
2013-02-25 06:17:00,40.5,0.0,30.27,NNW,339,0.0,0.0,0,0.05,,SCT080,0.44,VWS V13.01,2013-02-25 14:17:00,
2013-02-25 06:25:00,40.5,0.0,30.27,NNW,339,0.0,0.0,0,0.05,,SCT080,0.44,VWS V13.01,2013-02-25 14:25:00,
2013-02-25 06:30:00,40.4,0.0,30.27,NNW,339,0.0,0.0,0,0.04,,SCT080,0.44,VWS V13.01,2013-02-25 14:30:00,
2013-02-25 06:35:00,40.4,0.0,30.28,NNW,339,0.0,0.0,0,0.04,,SCT080,0.44,VWS V13.01,2013-02-25 14:35:00,
2013-02-25 06:40:00,40.3,0.0,30.28,NNW,339,0.0,0.0,0,0.04,,OVC055,0.44,VWS V13.01,2013-02-25 14:40:00,
2013-02-25 06:46:00,40.4,0.0,30.28,NNW,339,0.0,0.0,0,0.05,,OVC055,0.45,VWS V13.01,2013-02-25 14:46:00,
2013-02-25 06:51:00,40.4,0.0,30.28,NNW,336,0.0,0.0,0,0.05,,OVC055,0.45,VWS V13.01,2013-02-25 14:51:00,
2013-02-25 06:56:00,40.4,0.0,30.28,NNW,336,0.0,0.0,0,0.05,,OVC055,0.45,VWS V13.01,2013-02-25 14:56:00,
2013-02-25 07:01:00,40.4,0.0,30.28,NNW,336,0.0,0.0,0,0.02,,OVC055,0.45,VWS V13.01,2013-02-25 15:01:00,
2013-02-25 07:06:00,40.2,0.0,30.28,NNW,336,0.0,0.0,0,0.02,,OVC055,0.45,VWS V13.01,2013-02-25 15:06:00,
2013-02-25 07:11:00,40.1,0.0,30.29,NNW,336,0.0,1.0,0,0.02,,OVC055,0.45,VWS V13.01,2013-02-25 15:11:00,
2013-02-25 07:16:00,40.0,0.0,30.30,NNW,336,0.0,0.0,0,0.01,,OVC055,0.45,VWS V13.01,2013-02-25 15:16:00,
2013-02-25 07:21:00,40.0,0.0,30.30,NNW,336,1.0,2.0,0,0.01,,OVC055,0.45,VWS V13.01,2013-02-25 15:21:00,
2013-02-25 07:26:00,40.0,0.0,30.30,NNW,336,0.0,2.0,0,0.01,,OVC055,0.45,VWS V13.01,2013-02-25 15:26:00,
2013-02-25 07:31:00,40.1,0.0,30.30,NNW,333,0.0,0.0,0,0.02,,OVC055,0.46,VWS V13.01,2013-02-25 15:31:00,
2013-02-25 07:36:00,40.1,0.0,30.30,NNW,333,0.0,0.0,0,0.02,,OVC055,0.46,VWS V13.01,2013-02-25 15:36:00,
2013-02-25 07:41:00,40.2,0.0,30.30,NNW,333,0.0,0.0,0,0.02,,OVC055,0.46,VWS V13.01,2013-02-25 15:41:00,
2013-02-25 07:46:00,40.2,0.0,30.30,NNW,333,0.0,0.0,0,0.01,,OVC055,0.46,VWS V13.01,2013-02-25 15:46:00,
2013-02-25 07:52:00,40.3,0.0,30.30,NNW,333,0.0,0.0,0,0.01,,OVC055,0.46,VWS V13.01,2013-02-25 15:52:00,
2013-02-25 07:57:00,40.4,0.0,30.31,NNW,333,0.0,0.0,0,0.01,,OVC055,0.46,VWS V13.01,2013-02-25 15:57:00,
2013-02-25 08:02:00,40.6,0.0,30.31,NNW,331,0.0,1.0,0,0.01,,OVC055,0.46,VWS V13.01,2013-02-25 16:02:00,
2013-02-25 08:07:00,40.6,0.0,30.31,NW,306,0.0,2.0,0,0.02,,OVC055,0.47,VWS V13.01,2013-02-25 16:07:00,
2013-02-25 08:12:00,40.6,0.0,30.31,NW,306,0.0,2.0,0,0.02,,OVC055,0.47,VWS V13.01,2013-02-25 16:12:00,
2013-02-25 08:17:00,40.7,0.0,30.31,SE,128,0.0,1.0,0,0.02,,OVC055,0.47,VWS V13.01,2013-02-25 16:17:00,
2013-02-25 08:22:00,40.9,0.0,30.31,SE,128,0.0,1.0,0,0.02,,OVC055,0.47,VWS V13.01,2013-02-25 16:22:00,
2013-02-25 08:27:00,41.0,0.0,30.32,SE,126,1.0,2.0,0,0.03,,OVC055,0.48,VWS V13.01,2013-02-25 16:27:00,
2013-02-25 08:32:00,41.2,0.0,30.32,NE,41,2.0,2.0,0,0.02,,OVC055,0.48,VWS V13.01,2013-02-25 16:32:00,
2013-02-25 08:37:00,41.3,0.0,30.32,NNE,19,3.0,4.0,0,0.03,,OVC055,0.49,VWS V13.01,2013-02-25 16:37:00,
2013-02-25 08:42:00,41.2,0.0,30.31,NNE,23,0.0,4.0,0,0.03,,BKN075,0.49,VWS V13.01,2013-02-25 16:42:00,
2013-02-25 08:47:00,41.2,0.0,30.31,NNE,23,0.0,0.0,0,0.03,,BKN075,0.49,VWS V13.01,2013-02-25 16:47:00,
2013-02-25 08:53:00,41.3,0.0,30.31,NNE,23,0.0,0.0,0,0.03,,BKN075,0.49,VWS V13.01,2013-02-25 16:53:00,
2013-02-25 08:58:00,41.3,0.0,30.31,NNE,23,0.0,0.0,0,0.03,,BKN075,0.49,VWS V13.01,2013-02-25 16:58:00,
2013-02-25 09:03:00,41.4,0.0,30.31,NNE,23,0.0,1.0,0,0.03,,BKN075,0.49,VWS V13.01,2013-02-25 17:03:00,
2013-02-25 09:08:00,41.6,0.0,30.32,SW,221,0.0,3.0,0,0.03,,BKN075,0.49,VWS V13.01,2013-02-25 17:08:00,
2013-02-25 09:13:00,41.8,0.0,30.32,SSE,165,0.0,3.0,0,0.03,,BKN075,0.49,VWS V13.01,2013-02-25 17:13:00,
2013-02-25 09:18:00,41.9,0.0,30.32,WNW,299,0.0,2.0,0,0.02,,BKN075,0.49,VWS V13.01,2013-02-25 17:18:00,
2013-02-25 09:23:00,42.2,0.0,30.32,SSW,213,2.0,3.0,0,0.02,,BKN075,0.49,VWS V13.01,2013-02-25 17:23:00,
2013-02-25 09:28:00,42.3,0.0,30.32,South,186,0.0,3.0,0,0.02,,BKN075,0.49,VWS V13.01,2013-02-25 17:28:00,
2013-02-25 09:33:00,42.3,0.0,30.32,ENE,76,1.0,3.0,0,0.01,,BKN075,0.49,VWS V13.01,2013-02-25 17:33:00,
2013-02-25 09:38:00,42.4,0.0,30.32,NNW,333,0.0,3.0,0,0.01,,BKN075,0.49,VWS V13.01,2013-02-25 17:38:00,
2013-02-25 09:43:00,42.7,0.0,30.33,WNW,290,0.0,3.0,0,0.01,,BKN090,0.49,VWS V13.01,2013-02-25 17:43:00,
2013-02-25 09:48:00,42.8,0.0,30.33,WNW,290,0.0,1.0,0,0.00,,BKN090,0.49,VWS V13.01,2013-02-25 17:48:00,
2013-02-25 09:53:00,42.9,0.0,30.33,WNW,290,0.0,1.0,0,0.00,,BKN090,0.49,VWS V13.01,2013-02-25 17:53:00,
2013-02-25 09:58:00,43.0,0.0,30.34,WNW,290,0.0,1.0,0,0.00,,BKN090,0.49,VWS V13.01,2013-02-25 17:58:00,
2013-02-25 10:03:00,43.0,0.0,30.34,NW,317,1.0,2.0,0,0.03,,BKN090,0.52,VWS V13.01,2013-02-25 18:03:00,
2013-02-25 10:08:00,42.7,0.0,30.34,NW,317,0.0,2.0,0,0.06,,BKN090,0.55,VWS V13.01,2013-02-25 18:08:00,
2013-02-25 10:13:00,42.4,0.0,30.34,East,97,0.0,4.0,0,0.07,,BKN090,0.56,VWS V13.01,2013-02-25 18:13:00,
2013-02-25 10:18:00,42.9,0.0,30.34,NE,43,0.0,1.0,0,0.07,,BKN090,0.56,VWS V13.01,2013-02-25 18:18:00,
2013-02-25 10:23:00,42.9,0.0,30.34,NE,54,0.0,3.0,0,0.08,,BKN090,0.57,VWS V13.01,2013-02-25 18:23:00,
2013-02-25 10:28:00,42.9,0.0,30.34,NE,54,0.0,3.0,0,0.10,,BKN090,0.59,VWS V13.01,2013-02-25 18:28:00,
2013-02-25 10:34:00,43.0,0.0,30.34,NE,54,0.0,0.0,0,0.10,,BKN090,0.59,VWS V13.01,2013-02-25 18:34:00,
2013-02-25 10:38:00,43.3,0.0,30.34,SSE,153,0.0,2.0,0,0.10,,BKN090,0.59,VWS V13.01,2013-02-25 18:38:00,
2013-02-25 10:44:00,43.6,0.0,30.34,SE,139,2.0,3.0,0,0.10,,BKN070,0.59,VWS V13.01,2013-02-25 18:44:00,
2013-02-25 10:49:00,43.9,0.0,30.34,SE,137,2.0,3.0,0,0.10,,BKN070,0.59,VWS V13.01,2013-02-25 18:49:00,
2013-02-25 10:54:00,44.4,0.0,30.34,South,182,3.0,4.0,0,0.10,,BKN070,0.59,VWS V13.01,2013-02-25 18:54:00,
2013-02-25 10:59:00,44.7,0.0,30.35,South,180,3.0,4.0,0,0.10,,BKN070,0.59,VWS V13.01,2013-02-25 18:59:00,
2013-02-25 11:04:00,44.7,0.0,30.35,South,173,1.0,5.0,0,0.10,,BKN070,0.59,VWS V13.01,2013-02-25 19:04:00,
2013-02-25 11:09:00,44.3,0.0,30.35,ENE,63,4.0,5.0,0,0.10,,BKN070,0.59,VWS V13.01,2013-02-25 19:09:00,
2013-02-25 11:14:00,44.6,0.0,30.36,SE,134,1.0,2.0,0,0.10,,BKN070,0.59,VWS V13.01,2013-02-25 19:14:00,
2013-02-25 11:19:00,44.5,0.0,30.36,ESE,111,1.0,5.0,0,0.03,,BKN070,0.59,VWS V13.01,2013-02-25 19:19:00,
2013-02-25 11:24:00,44.9,0.0,30.36,SSE,153,2.0,5.0,0,0.03,,BKN070,0.59,VWS V13.01,2013-02-25 19:24:00,
2013-02-25 11:29:00,45.0,0.0,30.36,SE,128,1.0,2.0,0,0.03,,BKN070,0.59,VWS V13.01,2013-02-25 19:29:00,
2013-02-25 11:34:00,44.9,0.0,30.36,SE,144,5.0,6.0,0,0.00,,BKN070,0.59,VWS V13.01,2013-02-25 19:34:00,
2013-02-25 11:39:00,45.3,0.0,30.35,SE,140,1.0,6.0,0,0.00,,-RA,0.59,VWS V13.01,2013-02-25 19:39:00,
2013-02-25 11:44:00,45.5,0.0,30.36,SSE,147,0.0,0.0,0,0.00,,-RA,0.59,VWS V13.01,2013-02-25 19:44:00,
2013-02-25 11:50:00,45.4,0.0,30.35,SE,140,2.0,2.0,0,0.00,,BKN050,0.59,VWS V13.01,2013-02-25 19:50:00,
2013-02-25 11:55:00,44.8,0.0,30.35,SSE,153,0.0,6.0,0,0.00,,BKN050,0.59,VWS V13.01,2013-02-25 19:55:00,
2013-02-25 12:00:00,44.9,0.0,30.35,SSE,158,0.0,0.0,0,0.00,,BKN050,0.59,VWS V13.01,2013-02-25 20:00:00,
2013-02-25 12:05:00,44.7,0.0,30.36,South,185,2.0,2.0,0,0.00,,BKN050,0.59,VWS V13.01,2013-02-25 20:05:00,
2013-02-25 12:10:00,44.9,0.0,30.35,SE,130,0.0,6.0,0,0.00,,BKN050,0.59,VWS V13.01,2013-02-25 20:10:00,
2013-02-25 12:15:00,45.0,0.0,30.35,South,169,2.0,3.0,0,0.00,,BKN050,0.59,VWS V13.01,2013-02-25 20:15:00,
2013-02-25 12:20:00,45.5,0.0,30.35,South,189,4.0,6.0,0,0.00,,BKN050,0.59,VWS V13.01,2013-02-25 20:20:00,
2013-02-25 12:25:00,45.9,-0.6,30.35,SE,137,0.0,6.0,14,0.00,,BKN050,0.59,VWS V13.01,2013-02-25 20:25:00,
2013-02-25 12:30:00,46.5,0.0,30.35,South,180,1.0,5.0,0,0.00,,BKN050,0.59,VWS V13.01,2013-02-25 20:30:00,
2013-02-25 12:35:00,46.6,0.0,30.35,East,91,2.0,7.0,0,0.00,,BKN050,0.59,VWS V13.01,2013-02-25 20:35:00,
2013-02-25 12:40:00,46.4,14.2,30.35,South,186,3.0,7.0,27,0.00,,BKN080,0.59,VWS V13.01,2013-02-25 20:40:00,
2013-02-25 12:45:00,46.5,-0.1,30.35,ESE,115,0.0,1.0,14,0.00,,BKN080,0.59,VWS V13.01,2013-02-25 20:45:00,
2013-02-25 12:50:00,46.4,28.3,30.35,SSE,153,3.0,13.0,49,0.00,,BKN080,0.59,VWS V13.01,2013-02-25 20:50:00,
2013-02-25 12:55:00,46.5,28.4,30.35,SSE,161,7.0,13.0,49,0.00,,BKN080,0.59,VWS V13.01,2013-02-25 20:55:00,
2013-02-25 13:00:00,46.2,14.9,30.35,SSE,159,2.0,3.0,28,0.00,,BKN080,0.59,VWS V13.01,2013-02-25 21:00:00,
2013-02-25 13:05:00,45.8,19.0,30.36,ENE,71,0.0,4.0,34,0.00,,BKN080,0.59,VWS V13.01,2013-02-25 21:05:00,
2013-02-25 13:10:00,45.7,20.3,30.36,SE,139,0.0,4.0,36,0.00,,BKN080,0.59,VWS V13.01,2013-02-25 21:10:00,
2013-02-25 13:16:00,45.9,-7.6,30.36,SSE,147,3.0,4.0,10,0.00,,BKN080,0.59,VWS V13.01,2013-02-25 21:16:00,
2013-02-25 13:21:00,46.3,29.2,30.35,SSE,148,5.0,8.0,51,0.00,,BKN080,0.59,VWS V13.01,2013-02-25 21:21:00,
2013-02-25 13:26:00,46.6,31.3,30.35,South,187,12.0,13.0,55,0.00,,BKN080,0.59,VWS V13.01,2013-02-25 21:26:00,
2013-02-25 13:31:00,46.7,31.9,30.36,South,182,9.0,14.0,56,0.00,,BKN080,0.59,VWS V13.01,2013-02-25 21:31:00,
2013-02-25 13:36:00,46.2,28.6,30.36,SSE,162,10.0,14.0,50,0.00,,BKN080,0.59,VWS V13.01,2013-02-25 21:36:00,
2013-02-25 13:41:00,45.1,25.6,30.37,SSE,155,1.0,14.0,46,0.00,,BKN040,0.59,VWS V13.01,2013-02-25 21:41:00,
2013-02-25 13:46:00,44.4,15.7,30.37,SSE,164,8.0,12.0,31,0.00,,BKN040,0.59,VWS V13.01,2013-02-25 21:46:00,
2013-02-25 13:51:00,43.3,-1.2,30.38,South,189,1.0,12.0,15,0.01,,BKN040,0.60,VWS V13.01,2013-02-25 21:51:00,
2013-02-25 13:56:00,43.1,0.0,30.38,South,179,0.0,12.0,0,0.02,,BKN040,0.61,VWS V13.01,2013-02-25 21:56:00,
2013-02-25 14:01:00,42.8,0.0,30.37,NE,52,4.0,8.0,0,0.03,,BKN040,0.62,VWS V13.01,2013-02-25 22:01:00,
2013-02-25 14:06:00,42.7,0.0,30.37,ENE,63,2.0,8.0,0,0.03,,BKN040,0.62,VWS V13.01,2013-02-25 22:06:00,
2013-02-25 14:11:00,42.5,0.0,30.37,ENE,64,0.0,8.0,0,0.03,,BKN040,0.62,VWS V13.01,2013-02-25 22:11:00,
2013-02-25 14:17:00,42.6,0.0,30.37,ENE,64,0.0,0.0,0,0.03,,BKN040,0.62,VWS V13.01,2013-02-25 22:17:00,
2013-02-25 14:22:00,42.7,0.0,30.37,ENE,64,0.0,0.0,0,0.03,,BKN040,0.62,VWS V13.01,2013-02-25 22:22:00,
2013-02-25 14:27:00,42.9,0.0,30.37,ENE,64,0.0,0.0,0,0.03,,BKN040,0.62,VWS V13.01,2013-02-25 22:27:00,
2013-02-25 14:32:00,43.2,0.0,30.37,ENE,64,0.0,0.0,0,0.03,,BKN040,0.62,VWS V13.01,2013-02-25 22:32:00,
2013-02-25 14:37:00,43.4,0.0,30.37,SE,142,0.0,0.0,0,0.03,,BKN040,0.62,VWS V13.01,2013-02-25 22:37:00,
2013-02-25 14:42:00,43.5,0.0,30.37,SSW,192,3.0,4.0,0,0.03,,SCT050,0.62,VWS V13.01,2013-02-25 22:42:00,
2013-02-25 14:47:00,43.6,0.0,30.36,South,191,0.0,1.0,0,0.03,,SCT050,0.62,VWS V13.01,2013-02-25 22:47:00,
2013-02-25 14:52:00,43.6,0.0,30.36,South,191,0.0,1.0,0,0.03,,SCT050,0.62,VWS V13.01,2013-02-25 22:52:00,
2013-02-25 14:57:00,43.7,0.0,30.36,South,191,0.0,1.0,0,0.03,,SCT050,0.62,VWS V13.01,2013-02-25 22:57:00,
2013-02-25 15:02:00,43.9,0.0,30.36,South,191,0.0,0.0,0,0.00,,SCT050,0.62,VWS V13.01,2013-02-25 23:02:00,
2013-02-25 15:07:00,43.9,0.0,30.36,South,191,0.0,0.0,0,0.00,,SCT050,0.62,VWS V13.01,2013-02-25 23:07:00,
2013-02-25 15:13:00,43.8,0.0,30.37,South,191,0.0,0.0,0,0.00,,SCT050,0.62,VWS V13.01,2013-02-25 23:13:00,
2013-02-25 15:18:00,43.8,0.0,30.37,South,191,0.0,0.0,0,0.00,,SCT050,0.62,VWS V13.01,2013-02-25 23:18:00,
2013-02-25 15:23:00,43.8,0.0,30.37,South,186,3.0,3.0,0,0.00,,SCT050,0.62,VWS V13.01,2013-02-25 23:23:00,
2013-02-25 15:28:00,43.6,0.0,30.37,South,171,4.0,7.0,0,0.00,,SCT050,0.62,VWS V13.01,2013-02-25 23:28:00,
2013-02-25 15:33:00,43.3,0.0,30.37,South,174,6.0,7.0,0,0.00,,SCT050,0.62,VWS V13.01,2013-02-25 23:33:00,
2013-02-25 15:38:00,43.3,0.0,30.37,SSW,195,0.0,7.0,0,0.00,,SCT050,0.62,VWS V13.01,2013-02-25 23:38:00,
2013-02-25 15:43:00,43.4,0.0,30.37,SSW,211,3.0,7.0,0,0.00,,SCT100,0.62,VWS V13.01,2013-02-25 23:43:00,
2013-02-25 15:48:00,43.3,0.0,30.37,SSW,202,2.0,5.0,0,0.00,,SCT100,0.62,VWS V13.01,2013-02-25 23:48:00,
2013-02-25 15:53:00,43.4,0.0,30.37,SSW,210,0.0,5.0,0,0.00,,SCT100,0.62,VWS V13.01,2013-02-25 23:53:00,
2013-02-25 15:58:00,43.6,0.0,30.37,SSW,202,3.0,5.0,0,0.00,,SCT100,0.62,VWS V13.01,2013-02-25 23:58:00,
2013-02-25 16:03:00,43.6,0.0,30.37,SSW,202,0.0,2.0,0,0.00,,SCT100,0.62,VWS V13.01,2013-02-26 00:03:00,
2013-02-25 16:08:00,43.8,0.0,30.37,SSW,202,0.0,2.0,0,0.00,,SCT100,0.62,VWS V13.01,2013-02-26 00:08:00,
2013-02-25 16:14:00,43.8,0.0,30.37,SSW,202,0.0,2.0,0,0.00,,BKN080,0.62,VWS V13.01,2013-02-26 00:14:00,
2013-02-25 16:19:00,43.9,0.0,30.37,SSW,202,0.0,0.0,0,0.00,,BKN080,0.62,VWS V13.01,2013-02-26 00:19:00,
2013-02-25 16:24:00,44.0,0.0,30.37,SSW,202,0.0,0.0,0,0.00,,BKN080,0.62,VWS V13.01,2013-02-26 00:24:00,
2013-02-25 16:29:00,43.9,0.0,30.37,SSW,202,0.0,2.0,0,0.00,,BKN080,0.62,VWS V13.01,2013-02-26 00:29:00,
2013-02-25 16:34:00,43.7,0.0,30.37,SSW,202,1.0,3.0,0,0.00,,BKN080,0.62,VWS V13.01,2013-02-26 00:34:00,
2013-02-25 16:39:00,43.7,0.0,30.38,SSW,202,0.0,3.0,0,0.00,,BKN080,0.62,VWS V13.01,2013-02-26 00:39:00,
2013-02-25 16:44:00,43.6,0.0,30.38,SSW,202,0.0,3.0,0,0.00,,BKN080,0.62,VWS V13.01,2013-02-26 00:44:00,
2013-02-25 16:49:00,43.6,0.0,30.39,ENE,64,10.0,10.0,0,0.01,,BKN080,0.63,VWS V13.01,2013-02-26 00:49:00,
2013-02-25 16:54:00,42.2,0.0,30.38,NE,42,7.0,16.0,0,0.02,,BKN080,0.64,VWS V13.01,2013-02-26 00:54:00,
2013-02-25 16:59:00,41.5,0.0,30.39,NE,36,2.0,2.0,0,0.04,,BKN080,0.66,VWS V13.01,2013-02-26 00:59:00,
2013-02-25 17:04:00,41.4,0.0,30.38,ENE,70,0.0,4.0,0,0.05,,BKN080,0.67,VWS V13.01,2013-02-26 01:04:00,
2013-02-25 17:09:00,41.4,0.0,30.38,NE,55,0.0,4.0,0,0.05,,BKN080,0.67,VWS V13.01,2013-02-26 01:09:00,
2013-02-25 17:14:00,41.3,0.0,30.38,NE,55,0.0,0.0,0,0.05,,BKN080,0.67,VWS V13.01,2013-02-26 01:14:00,
2013-02-25 17:19:00,41.1,0.0,30.39,NE,55,0.0,0.0,0,0.05,,BKN080,0.67,VWS V13.01,2013-02-26 01:19:00,
2013-02-25 17:24:00,40.9,0.0,30.38,NE,55,0.0,0.0,0,0.05,,BKN080,0.67,VWS V13.01,2013-02-26 01:24:00,
2013-02-25 17:30:00,40.8,0.0,30.39,NE,55,0.0,0.0,0,0.05,,BKN080,0.67,VWS V13.01,2013-02-26 01:30:00,
2013-02-25 17:35:00,40.7,0.0,30.39,NE,55,0.0,0.0,0,0.05,,BKN080,0.67,VWS V13.01,2013-02-26 01:35:00,
2013-02-25 17:40:00,40.6,0.0,30.39,NE,55,0.0,0.0,0,0.05,,BKN075,0.67,VWS V13.01,2013-02-26 01:40:00,
2013-02-25 17:45:00,40.6,0.0,30.39,SSE,156,1.0,2.0,0,0.05,,BKN075,0.67,VWS V13.01,2013-02-26 01:45:00,
2013-02-25 17:50:00,40.5,0.0,30.39,SSE,156,0.0,2.0,0,0.05,,BKN075,0.67,VWS V13.01,2013-02-26 01:50:00,
2013-02-25 17:55:00,40.6,0.0,30.39,SSE,156,0.0,2.0,0,0.05,,BKN075,0.67,VWS V13.01,2013-02-26 01:55:00,
2013-02-25 18:00:00,40.5,0.0,30.39,SSE,156,0.0,0.0,0,0.01,,BKN075,0.67,VWS V13.01,2013-02-26 02:00:00,
2013-02-25 18:05:00,40.4,0.0,30.39,SSE,156,0.0,0.0,0,0.01,,BKN075,0.67,VWS V13.01,2013-02-26 02:05:00,
2013-02-25 18:10:00,40.4,0.0,30.39,SSE,156,0.0,0.0,0,0.01,,BKN075,0.67,VWS V13.01,2013-02-26 02:10:00,
2013-02-25 18:15:00,40.3,0.0,30.39,SSE,156,0.0,0.0,0,0.00,,BKN075,0.67,VWS V13.01,2013-02-26 02:15:00,
2013-02-25 18:20:00,40.2,0.0,30.39,South,189,0.0,0.0,0,0.00,,BKN075,0.67,VWS V13.01,2013-02-26 02:20:00,
2013-02-25 18:25:00,40.0,0.0,30.39,South,189,0.0,0.0,0,0.00,,BKN075,0.67,VWS V13.01,2013-02-26 02:25:00,
2013-02-25 18:30:00,39.8,0.0,30.39,South,189,0.0,0.0,0,0.00,,BKN075,0.67,VWS V13.01,2013-02-26 02:30:00,
2013-02-25 18:35:00,39.7,0.0,30.40,South,189,0.0,1.0,0,0.00,,BKN075,0.67,VWS V13.01,2013-02-26 02:35:00,
2013-02-25 18:40:00,39.6,0.0,30.40,South,189,0.0,1.0,0,0.00,,SCT080,0.67,VWS V13.01,2013-02-26 02:40:00,
2013-02-25 18:46:00,39.5,0.0,30.41,South,189,0.0,0.0,0,0.00,,SCT080,0.67,VWS V13.01,2013-02-26 02:46:00,
2013-02-25 18:51:00,39.5,0.0,30.40,South,189,1.0,1.0,0,0.00,,SCT080,0.67,VWS V13.01,2013-02-26 02:51:00,
2013-02-25 18:56:00,39.6,0.0,30.40,West,266,0.0,2.0,0,0.00,,SCT080,0.67,VWS V13.01,2013-02-26 02:56:00,
2013-02-25 19:01:00,39.6,0.0,30.40,North,9,0.0,0.0,0,0.00,,SCT080,0.67,VWS V13.01,2013-02-26 03:01:00,
2013-02-25 19:06:00,39.6,0.0,30.40,North,9,0.0,0.0,0,0.00,,SCT080,0.67,VWS V13.01,2013-02-26 03:06:00,
2013-02-25 19:11:00,39.6,0.0,30.40,North,9,0.0,0.0,0,0.00,,SCT080,0.67,VWS V13.01,2013-02-26 03:11:00,
2013-02-25 19:16:00,39.5,0.0,30.40,North,9,0.0,0.0,0,0.00,,SCT080,0.67,VWS V13.01,2013-02-26 03:16:00,
2013-02-25 19:21:00,39.5,0.0,30.40,North,9,0.0,0.0,0,0.00,,SCT080,0.67,VWS V13.01,2013-02-26 03:21:00,
2013-02-25 19:26:00,39.4,0.0,30.40,North,9,0.0,0.0,0,0.00,,SCT080,0.67,VWS V13.01,2013-02-26 03:26:00,
2013-02-25 19:31:00,39.3,0.0,30.40,North,9,0.0,0.0,0,0.00,,SCT080,0.67,VWS V13.01,2013-02-26 03:31:00,
2013-02-25 19:37:00,39.2,0.0,30.40,North,9,0.0,0.0,0,0.00,,SCT080,0.67,VWS V13.01,2013-02-26 03:37:00,
2013-02-25 19:42:00,39.1,0.0,30.40,North,9,0.0,0.0,0,0.00,,SCT080,0.67,VWS V13.01,2013-02-26 03:42:00,
2013-02-25 19:47:00,38.9,0.0,30.40,North,9,0.0,0.0,0,0.00,,SCT080,0.67,VWS V13.01,2013-02-26 03:47:00,
2013-02-25 19:52:00,38.9,0.0,30.41,North,9,0.0,0.0,0,0.00,,SCT080,0.67,VWS V13.01,2013-02-26 03:52:00,
2013-02-25 19:57:00,38.8,0.0,30.41,North,9,0.0,0.0,0,0.00,,SCT080,0.67,VWS V13.01,2013-02-26 03:57:00,
2013-02-25 20:02:00,38.8,0.0,30.41,North,9,0.0,0.0,0,0.00,,SCT080,0.67,VWS V13.01,2013-02-26 04:02:00,
2013-02-25 20:07:00,38.8,0.0,30.41,North,9,0.0,0.0,0,0.00,,SCT080,0.67,VWS V13.01,2013-02-26 04:07:00,
2013-02-25 20:12:00,38.8,0.0,30.41,North,9,0.0,1.0,0,0.00,,SCT080,0.67,VWS V13.01,2013-02-26 04:12:00,
2013-02-25 20:17:00,38.7,0.0,30.41,North,9,0.0,0.0,0,0.00,,SCT080,0.67,VWS V13.01,2013-02-26 04:17:00,
2013-02-25 20:22:00,38.7,0.0,30.41,North,9,0.0,0.0,0,0.00,,SCT080,0.67,VWS V13.01,2013-02-26 04:22:00,
2013-02-25 20:27:00,38.6,0.0,30.41,North,9,0.0,2.0,0,0.00,,SCT080,0.67,VWS V13.01,2013-02-26 04:27:00,
2013-02-25 20:32:00,38.5,0.0,30.42,North,9,0.0,0.0,0,0.00,,SCT080,0.67,VWS V13.01,2013-02-26 04:32:00,
2013-02-25 20:37:00,38.4,0.0,30.41,North,9,0.0,0.0,0,0.00,,SCT080,0.67,VWS V13.01,2013-02-26 04:37:00,
2013-02-25 20:42:00,38.4,0.0,30.42,North,9,0.0,0.0,0,0.00,,BKN250,0.67,VWS V13.01,2013-02-26 04:42:00,
2013-02-25 20:47:00,38.3,0.0,30.42,South,178,1.0,3.0,0,0.00,,BKN250,0.67,VWS V13.01,2013-02-26 04:47:00,
2013-02-25 20:52:00,38.2,0.0,30.42,SSE,156,0.0,3.0,0,0.00,,BKN250,0.67,VWS V13.01,2013-02-26 04:52:00,
2013-02-25 20:57:00,38.1,0.0,30.42,South,172,2.0,3.0,0,0.00,,BKN250,0.67,VWS V13.01,2013-02-26 04:57:00,
2013-02-25 21:00:00,38.1,0.0,30.42,South,172,0.0,1.0,0,0.00,,BKN250,0.67,VWS V13.01,2013-02-26 05:00:00,
2013-02-25 21:01:00,38.1,0.0,30.42,South,172,0.0,2.0,0,0.00,,BKN250,0.67,VWS V13.01,2013-02-26 05:01:00,
2013-02-25 21:06:00,38.1,0.0,30.43,South,172,0.0,2.0,0,0.00,,BKN250,0.67,VWS V13.01,2013-02-26 05:06:00,
2013-02-25 21:11:00,38.1,0.0,30.43,South,172,0.0,2.0,0,0.00,,BKN250,0.67,VWS V13.01,2013-02-26 05:11:00,
2013-02-25 21:16:00,38.1,0.0,30.43,South,172,0.0,0.0,0,0.00,,BKN250,0.67,VWS V13.01,2013-02-26 05:16:00,
2013-02-25 21:21:00,38.1,0.0,30.42,South,172,0.0,0.0,0,0.00,,BKN250,0.67,VWS V13.01,2013-02-26 05:21:00,
2013-02-25 21:26:00,38.1,0.0,30.43,South,172,0.0,0.0,0,0.00,,BKN250,0.67,VWS V13.01,2013-02-26 05:26:00,
2013-02-25 21:31:00,38.1,0.0,30.42,South,172,0.0,2.0,0,0.00,,BKN250,0.67,VWS V13.01,2013-02-26 05:31:00,
2013-02-25 21:36:00,38.0,0.0,30.42,South,172,0.0,2.0,0,0.00,,BKN250,0.67,VWS V13.01,2013-02-26 05:36:00,
2013-02-25 21:42:00,38.0,0.0,30.42,South,172,0.0,2.0,0,0.00,,SCT240,0.67,VWS V13.01,2013-02-26 05:42:00,
2013-02-25 21:47:00,38.0,0.0,30.42,South,172,0.0,0.0,0,0.00,,SCT240,0.67,VWS V13.01,2013-02-26 05:47:00,
2013-02-25 21:52:00,37.9,0.0,30.43,South,172,0.0,0.0,0,0.00,,SCT240,0.67,VWS V13.01,2013-02-26 05:52:00,
2013-02-25 21:57:00,37.8,0.0,30.43,South,172,0.0,0.0,0,0.00,,SCT240,0.67,VWS V13.01,2013-02-26 05:57:00,
2013-02-25 22:02:00,37.8,0.0,30.43,South,172,0.0,0.0,0,0.00,,SCT240,0.67,VWS V13.01,2013-02-26 06:02:00,
2013-02-25 22:07:00,37.8,0.0,30.43,South,172,0.0,2.0,0,0.00,,SCT240,0.67,VWS V13.01,2013-02-26 06:07:00,
2013-02-25 22:12:00,37.8,0.0,30.43,South,172,0.0,2.0,0,0.00,,SCT240,0.67,VWS V13.01,2013-02-26 06:12:00,
2013-02-25 22:17:00,37.7,0.0,30.43,South,172,0.0,1.0,0,0.00,,SCT240,0.67,VWS V13.01,2013-02-26 06:17:00,
2013-02-25 22:22:00,37.7,0.0,30.43,South,172,0.0,1.0,0,0.00,,SCT240,0.67,VWS V13.01,2013-02-26 06:22:00,
2013-02-25 22:27:00,37.6,0.0,30.43,South,172,0.0,1.0,0,0.00,,SCT240,0.67,VWS V13.01,2013-02-26 06:27:00,
2013-02-25 22:33:00,37.6,0.0,30.43,South,172,0.0,0.0,0,0.00,,SCT240,0.67,VWS V13.01,2013-02-26 06:33:00,
2013-02-25 22:38:00,37.6,0.0,30.43,South,172,0.0,0.0,0,0.00,,SCT240,0.67,VWS V13.01,2013-02-26 06:38:00,
2013-02-25 22:43:00,37.6,0.0,30.43,South,172,0.0,0.0,0,0.00,,BKN240,0.67,VWS V13.01,2013-02-26 06:43:00,
2013-02-25 22:48:00,37.5,0.0,30.44,South,172,0.0,0.0,0,0.00,,BKN240,0.67,VWS V13.01,2013-02-26 06:48:00,
2013-02-25 22:53:00,37.5,0.0,30.44,South,172,0.0,0.0,0,0.00,,BKN240,0.67,VWS V13.01,2013-02-26 06:53:00,
2013-02-25 22:58:00,37.5,0.0,30.44,South,172,0.0,0.0,0,0.00,,BKN240,0.67,VWS V13.01,2013-02-26 06:58:00,
2013-02-25 23:03:00,37.5,0.0,30.44,South,172,0.0,0.0,0,0.00,,BKN240,0.67,VWS V13.01,2013-02-26 07:03:00,
2013-02-25 23:08:00,37.4,0.0,30.44,South,172,0.0,0.0,0,0.00,,BKN240,0.67,VWS V13.01,2013-02-26 07:08:00,
2013-02-25 23:13:00,37.4,0.0,30.45,NE,43,2.0,3.0,0,0.00,,BKN240,0.67,VWS V13.01,2013-02-26 07:13:00,
2013-02-25 23:18:00,37.4,0.0,30.45,NE,46,1.0,2.0,0,0.00,,BKN240,0.67,VWS V13.01,2013-02-26 07:18:00,
2013-02-25 23:23:00,37.3,0.0,30.45,NE,46,0.0,2.0,0,0.00,,BKN240,0.67,VWS V13.01,2013-02-26 07:23:00,
2013-02-25 23:28:00,37.3,0.0,30.45,NE,46,0.0,2.0,0,0.00,,BKN240,0.67,VWS V13.01,2013-02-26 07:28:00,
2013-02-25 23:34:00,37.3,0.0,30.44,NE,46,0.0,0.0,0,0.00,,BKN240,0.67,VWS V13.01,2013-02-26 07:34:00,
2013-02-25 23:39:00,37.4,0.0,30.44,NE,46,0.0,0.0,0,0.00,,BKN240,0.67,VWS V13.01,2013-02-26 07:39:00,
2013-02-25 23:44:00,37.3,0.0,30.44,NE,46,0.0,0.0,0,0.00,,BKN230,0.67,VWS V13.01,2013-02-26 07:44:00,
2013-02-25 23:49:00,37.3,0.0,30.44,NE,46,0.0,1.0,0,0.00,,BKN230,0.67,VWS V13.01,2013-02-26 07:49:00,
2013-02-25 23:54:00,37.4,0.0,30.44,NE,46,0.0,1.0,0,0.00,,BKN230,0.67,VWS V13.01,2013-02-26 07:54:00,
2013-02-25 23:59:00,37.4,0.0,30.44,NE,46,0.0,2.0,0,0.00,,BKN230,0.00,VWS V13.01,2013-02-26 07:59:00,